Time;durP1;ratioP1;P1;durP2;ratioP2;P2;SDS_P1;SDS_P2;PMS_P1;PMS_P2;Temp;Humidity;BMP_temperature;BMP_pressure;BME280_temperature;BME280_humidity;BME280_pressure;Samples;Min_cycle;Max_cycle;Signal;HPM_P1;HPM_P2
2021/05/17 00:01:28;;;;;;;31.73;28.63;;;;;;;11.66;100.00;100325.34;5026907;28;20573;-90
2021/05/17 00:03:55;;;;;;;30.88;27.88;;;;;;;11.66;100.00;100323.50;5025518;28;20049;-90
2021/05/17 00:06:23;;;;;;;33.10;29.60;;;;;;;11.62;100.00;100318.88;5023444;28;20049;-90
2021/05/17 00:08:52;;;;;;;32.38;29.15;;;;;;;11.55;100.00;100318.91;5027451;28;20053;-90
2021/05/17 00:11:19;;;;;;;34.35;30.15;;;;;;;11.52;100.00;100321.22;5023027;28;20054;-89
2021/05/17 00:13:46;;;;;;;33.92;30.40;;;;;;;11.56;100.00;100319.72;5022674;28;20100;-90
2021/05/17 00:16:12;;;;;;;32.83;29.63;;;;;;;11.62;100.00;100310.88;5024560;28;20042;-89
2021/05/17 00:18:39;;;;;;;33.08;30.02;;;;;;;11.70;100.00;100307.91;5029579;28;20099;-89
2021/05/17 00:21:08;;;;;;;31.83;28.70;;;;;;;11.68;100.00;100316.13;5031320;28;20045;-88
2021/05/17 00:23:36;;;;;;;33.08;29.70;;;;;;;11.33;100.00;100313.22;5035159;28;20053;-90
2021/05/17 00:26:03;;;;;;;32.90;29.35;;;;;;;11.35;100.00;100313.84;5023172;28;20049;-89
2021/05/17 00:28:29;;;;;;;35.15;30.50;;;;;;;11.39;100.00;100311.53;5020161;28;20099;-89
2021/05/17 00:30:56;;;;;;;31.60;28.55;;;;;;;11.46;100.00;100304.28;5031548;28;20476;-89
2021/05/17 00:33:23;;;;;;;31.73;28.83;;;;;;;11.52;100.00;100298.09;5024085;28;20050;-89
2021/05/17 00:35:50;;;;;;;30.55;27.55;;;;;;;11.45;100.00;100300.81;5024410;28;20053;-89
2021/05/17 00:38:18;;;;;;;31.63;28.55;;;;;;;11.55;100.00;100294.16;5027087;28;20060;-90
2021/05/17 00:40:47;;;;;;;33.47;29.85;;;;;;;11.20;100.00;100297.44;5024854;28;20049;-90
2021/05/17 00:43:14;;;;;;;32.20;28.98;;;;;;;11.22;100.00;100300.66;5031872;28;20057;-90
2021/05/17 00:45:41;;;;;;;34.60;30.13;;;;;;;11.03;100.00;100293.69;5026195;28;20050;-90
2021/05/17 00:48:08;;;;;;;31.90;28.73;;;;;;;11.14;100.00;100296.47;5020186;28;20136;-89
2021/05/17 00:50:35;;;;;;;29.63;26.67;;;;;;;11.25;100.00;100294.91;5027243;28;20042;-90
2021/05/17 00:53:01;;;;;;;29.30;26.60;;;;;;;11.22;100.00;100295.34;5025034;28;20508;-90
2021/05/17 00:55:29;;;;;;;30.08;27.27;;;;;;;11.04;100.00;100292.66;5024912;28;20466;-90
2021/05/17 00:57:57;;;;;;;30.77;27.35;;;;;;;10.92;100.00;100292.56;5024000;28;20514;-89
2021/05/17 01:00:26;;;;;;;35.35;30.35;;;;;;;11.02;100.00;100298.22;5029940;28;20053;-90
2021/05/17 01:02:52;;;;;;;28.98;25.83;;;;;;;10.88;100.00;100294.84;5022857;28;20042;-90
2021/05/17 01:05:19;;;;;;;30.52;27.23;;;;;;;10.84;100.00;100296.31;5021761;28;20577;-90
2021/05/17 01:07:47;;;;;;;29.98;26.90;;;;;;;10.70;100.00;100292.13;5025637;28;20045;-90
2021/05/17 01:10:16;;;;;;;28.13;25.42;;;;;;;10.84;100.00;100292.84;5029287;28;20475;-91
2021/05/17 01:12:47;;;;;;;30.17;27.33;;;;;;;10.65;100.00;100294.63;5023849;28;20148;-89
2021/05/17 01:15:16;;;;;;;30.55;27.58;;;;;;;10.54;100.00;100302.28;5023226;28;20041;-89
2021/05/17 01:17:44;;;;;;;31.27;28.13;;;;;;;10.64;100.00;100285.03;5021964;28;20123;-90
2021/05/17 01:20:12;;;;;;;30.17;27.38;;;;;;;10.63;100.00;100286.88;5022576;28;20491;-89
2021/05/17 01:22:49;;;;;;;28.85;26.45;;;;;;;10.58;100.00;100283.25;5025190;28;20061;-89
2021/05/17 01:25:17;;;;;;;31.25;26.65;;;;;;;10.70;100.00;100292.94;5028051;28;20061;-90
2021/05/17 01:27:45;;;;;;;29.65;26.80;;;;;;;10.46;100.00;100281.28;5023687;28;20056;-90
2021/05/17 01:30:13;;;;;;;31.80;28.48;;;;;;;10.37;100.00;100282.56;5022400;28;20427;-90
2021/05/17 01:32:40;;;;;;;33.25;29.95;;;;;;;10.42;100.00;100287.25;5021311;28;20049;-89
2021/05/17 01:35:10;;;;;;;34.10;30.55;;;;;;;10.50;100.00;100281.69;5021930;28;20103;-89
2021/05/17 01:37:40;;;;;;;33.63;30.23;;;;;;;10.56;100.00;100283.47;5022778;28;20056;-90
2021/05/17 01:40:08;;;;;;;36.17;32.45;;;;;;;10.45;100.00;100292.13;5019019;28;20041;-89
2021/05/17 01:42:39;;;;;;;34.40;31.05;;;;;;;10.59;100.00;100280.41;5026174;28;20057;-90
2021/05/17 01:45:07;;;;;;;37.22;31.48;;;;;;;10.50;100.00;100285.16;5023248;28;20056;-91
2021/05/17 01:47:38;;;;;;;34.53;31.20;;;;;;;10.60;100.00;100287.31;5023131;28;20424;-89
2021/05/17 01:50:07;;;;;;;30.67;27.65;;;;;;;10.45;100.00;100284.16;5023171;28;20065;-89
2021/05/17 01:52:36;;;;;;;31.52;28.52;;;;;;;10.53;100.00;100286.56;5025704;28;20060;-89
2021/05/17 01:55:05;;;;;;;31.50;28.20;;;;;;;10.45;100.00;100281.50;5023553;28;20059;-90
2021/05/17 01:57:32;;;;;;;32.15;28.77;;;;;;;10.49;100.00;100282.69;5024268;28;20041;-90
2021/05/17 02:00:00;;;;;;;31.33;28.52;;;;;;;10.45;100.00;100279.66;5024870;28;20491;-90
2021/05/17 02:02:27;;;;;;;32.72;29.83;;;;;;;10.54;100.00;100277.56;4989965;23;20134;-78
2021/05/17 02:04:54;;;;;;;32.78;29.38;;;;;;;10.29;100.00;100283.66;4972932;28;20069;-78
2021/05/17 02:07:20;;;;;;;32.13;29.13;;;;;;;10.19;100.00;100275.31;4972370;28;20053;-78
2021/05/17 02:09:52;;;;;;;32.13;28.73;;;;;;;10.17;100.00;100274.72;4972698;28;20047;-78
2021/05/17 02:12:22;;;;;;;34.53;30.83;;;;;;;10.29;100.00;100273.03;4972758;28;20129;-78
2021/05/17 02:14:51;;;;;;;31.58;28.67;;;;;;;10.28;100.00;100274.06;4972770;28;20129;-79
2021/05/17 02:17:19;;;;;;;31.50;28.58;;;;;;;10.15;100.00;100278.63;4972298;28;20180;-81
2021/05/17 02:19:47;;;;;;;30.25;27.48;;;;;;;10.29;100.00;100280.19;4973212;28;20531;-79
2021/05/17 02:22:16;;;;;;;31.50;28.70;;;;;;;10.40;100.00;100274.19;4972533;28;20047;-78
2021/05/17 02:24:44;;;;;;;29.38;26.77;;;;;;;10.18;100.00;100268.38;4972627;28;20117;-79
2021/05/17 02:27:12;;;;;;;31.30;28.13;;;;;;;10.21;100.00;100275.09;4972404;28;20053;-79
2021/05/17 02:29:38;;;;;;;30.02;27.38;;;;;;;10.32;100.00;100280.59;4972048;28;20518;-80
2021/05/17 02:32:05;;;;;;;28.42;25.83;;;;;;;10.13;100.00;100272.69;4972231;28;20047;-79
2021/05/17 02:34:33;;;;;;;29.38;26.70;;;;;;;10.07;100.00;100277.81;4971546;28;20472;-79
2021/05/17 02:37:01;;;;;;;29.52;26.98;;;;;;;9.99;100.00;100272.78;4972104;28;20121;-79
2021/05/17 02:39:27;;;;;;;30.08;27.40;;;;;;;9.81;100.00;100270.84;4972206;28;20046;-79
2021/05/17 02:41:56;;;;;;;31.52;28.67;;;;;;;10.02;100.00;100276.88;4969139;28;20098;-79
2021/05/17 02:44:23;;;;;;;30.33;27.45;;;;;;;9.88;100.00;100285.91;4972417;28;20051;-79
2021/05/17 02:46:52;;;;;;;29.58;26.80;;;;;;;10.04;100.00;100283.56;4972286;28;20487;-80
2021/05/17 02:49:19;;;;;;;33.33;30.30;;;;;;;10.01;100.00;100283.19;4972078;28;20054;-79
2021/05/17 02:51:47;;;;;;;30.48;27.88;;;;;;;10.07;100.00;100288.44;4972186;28;20089;-78
2021/05/17 02:54:25;;;;;;;28.50;25.65;;;;;;;9.99;100.00;100279.94;4971416;28;20043;-78
2021/05/17 02:57:10;;;;;;;30.33;27.50;;;;;;;10.15;100.00;100292.69;5012734;23;20145;-91
2021/05/17 03:00:12;;;;;;;27.52;24.92;;;;;;;10.18;100.00;100294.91;4996662;28;20780;-91
2021/05/17 03:03:00;;;;;;;29.33;26.60;;;;;;;9.94;100.00;100298.31;5000412;28;20069;-91
2021/05/17 03:05:35;;;;;;;28.83;26.33;;;;;;;9.96;100.00;100305.06;4984705;28;20054;-90
2021/05/17 03:08:05;;;;;;;30.48;27.70;;;;;;;9.76;100.00;100302.47;5002038;28;20084;-91
2021/05/17 03:10:34;;;;;;;30.85;27.95;;;;;;;9.89;100.00;100306.09;5000920;28;20057;-91
2021/05/17 03:13:05;;;;;;;30.42;27.67;;;;;;;9.84;100.00;100306.75;5003661;28;20140;-90
2021/05/17 03:15:32;;;;;;;32.75;29.75;;;;;;;10.00;100.00;100300.94;5003772;28;20050;-91
2021/05/17 03:17:58;;;;;;;30.75;27.88;;;;;;;9.93;100.00;100310.78;5003948;28;20049;-91
2021/05/17 03:20:27;;;;;;;30.73;27.67;;;;;;;9.88;100.00;100297.31;5001871;28;20052;-90
2021/05/17 03:22:56;;;;;;;30.60;27.75;;;;;;;10.02;100.00;100306.84;5003874;28;20078;-89
2021/05/17 03:25:26;;;;;;;35.70;32.38;;;;;;;9.96;100.00;100307.69;4999993;28;20046;-90
2021/05/17 03:27:53;;;;;;;33.55;30.45;;;;;;;9.97;100.00;100305.84;5004915;28;20482;-91
2021/05/17 03:30:20;;;;;;;32.28;28.70;;;;;;;10.09;100.00;100297.00;5003400;28;20050;-90
2021/05/17 03:32:47;;;;;;;30.98;28.20;;;;;;;10.19;100.00;100290.44;5001767;28;20046;-90
2021/05/17 03:35:16;;;;;;;31.38;28.20;;;;;;;10.29;100.00;100293.47;5001213;28;20050;-90
2021/05/17 03:37:43;;;;;;;30.50;27.52;;;;;;;10.52;100.00;100301.66;5012476;28;20054;-89
2021/05/17 03:40:11;;;;;;;34.42;28.10;;;;;;;10.39;100.00;100293.81;5008813;28;20054;-90
2021/05/17 03:42:39;;;;;;;30.33;27.55;;;;;;;10.49;100.00;100296.78;5007487;28;20454;-91
2021/05/17 03:45:11;;;;;;;31.25;28.00;;;;;;;10.45;100.00;100300.91;5001950;28;20073;-89
2021/05/17 03:47:38;;;;;;;29.90;26.67;;;;;;;10.63;100.00;100294.84;5003964;28;20473;-91
2021/05/17 03:50:06;;;;;;;29.05;26.38;;;;;;;10.80;100.00;100304.94;4999094;28;20058;-90
2021/05/17 03:52:33;;;;;;;28.48;25.58;;;;;;;10.91;100.00;100310.34;4997950;28;20042;-91
2021/05/17 03:55:00;;;;;;;27.40;24.80;;;;;;;10.98;100.00;100316.44;4997364;28;20081;-89
2021/05/17 03:57:28;;;;;;;30.40;27.33;;;;;;;11.12;100.00;100314.47;4987019;28;20050;-90
2021/05/17 03:59:55;;;;;;;30.55;27.65;;;;;;;11.15;100.00;100318.53;4997308;28;20081;-90
2021/05/17 04:02:24;;;;;;;30.75;27.75;;;;;;;11.30;100.00;100326.16;4997149;28;20059;-91
2021/05/17 04:04:58;;;;;;;26.98;24.45;;;;;;;13.58;100.00;100334.97;5005406;28;20061;-88
2021/05/17 04:07:49;;;;;;;28.60;25.70;;;;;;;13.37;100.00;100341.72;5000861;28;20046;-90
2021/05/17 04:15:45;;;;;;;29.05;26.30;;;;;;;12.06;100.00;100340.88;5001052;28;20050;-89
2021/05/17 04:18:12;;;;;;;27.17;24.80;;;;;;;12.58;100.00;100349.16;5002762;28;20057;-90
2021/05/17 04:20:39;;;;;;;27.98;25.70;;;;;;;12.63;100.00;100349.28;5001777;28;20201;-90
2021/05/17 04:23:06;;;;;;;29.08;26.38;;;;;;;12.70;100.00;100343.84;4994909;28;20188;-90
2021/05/17 04:25:32;;;;;;;28.90;26.45;;;;;;;12.68;100.00;100341.44;4998311;28;20054;-90
2021/05/17 04:28:00;;;;;;;28.33;26.00;;;;;;;12.67;100.00;100349.63;4989332;28;20073;-91
2021/05/17 04:30:26;;;;;;;31.75;28.67;;;;;;;12.71;100.00;100362.28;5002771;28;20096;-91
2021/05/17 04:32:54;;;;;;;29.00;26.50;;;;;;;12.71;100.00;100359.63;5000662;28;20046;-90
2021/05/17 04:35:23;;;;;;;29.38;26.77;;;;;;;12.86;100.00;100363.69;5002390;28;20056;-88
2021/05/17 04:37:52;;;;;;;31.17;27.92;;;;;;;13.17;100.00;100354.59;5002360;28;20070;-89
2021/05/17 04:40:18;;;;;;;25.88;23.88;;;;;;;13.39;100.00;100355.63;4991197;28;20042;-89
2021/05/17 04:42:45;;;;;;;26.15;23.95;;;;;;;13.55;100.00;100347.97;5001015;28;20042;-89
2021/05/17 04:45:12;;;;;;;27.90;25.80;;;;;;;13.60;100.00;100351.56;4996286;28;20054;-89
2021/05/17 04:47:40;;;;;;;28.25;26.13;;;;;;;13.60;100.00;100348.91;4997967;28;20042;-88
2021/05/17 04:50:09;;;;;;;27.48;25.33;;;;;;;13.71;100.00;100348.06;4999430;28;20055;-88
2021/05/17 04:52:36;;;;;;;27.65;25.73;;;;;;;13.91;100.00;100357.53;5000734;28;20097;-89
2021/05/17 04:55:03;;;;;;;25.83;23.83;;;;;;;13.95;100.00;100345.34;5003697;28;20402;-91
2021/05/17 04:57:30;;;;;;;26.67;24.60;;;;;;;13.90;100.00;100334.56;4998901;28;20172;-89
2021/05/17 04:59:56;;;;;;;26.30;24.50;;;;;;;13.95;100.00;100340.81;5003135;28;20046;-89
2021/05/17 05:02:22;;;;;;;25.75;23.92;;;;;;;13.94;100.00;100328.50;5000295;28;20053;-88
2021/05/17 05:04:49;;;;;;;24.90;23.17;;;;;;;14.38;100.00;100328.78;5001669;28;20624;-89
2021/05/17 05:07:19;;;;;;;25.02;23.33;;;;;;;14.43;100.00;100333.38;5000644;28;20423;-89
2021/05/17 05:09:47;;;;;;;25.67;23.80;;;;;;;15.75;100.00;100333.81;5008042;28;20054;-88
2021/05/17 05:12:14;;;;;;;27.83;26.13;;;;;;;15.75;100.00;100320.44;5000663;28;20058;-89
2021/05/17 05:14:40;;;;;;;29.33;27.23;;;;;;;15.27;100.00;100327.28;4999248;28;20060;-88
2021/05/17 05:17:07;;;;;;;31.80;29.40;;;;;;;15.36;100.00;100320.44;5005057;28;20515;-87
2021/05/17 05:19:36;;;;;;;26.83;24.98;;;;;;;15.35;100.00;100316.16;5001238;28;20062;-85
2021/05/17 05:22:03;;;;;;;27.23;25.33;;;;;;;16.62;100.00;100324.81;5000843;28;20054;-87
2021/05/17 05:24:35;;;;;;;26.75;24.77;;;;;;;15.55;100.00;100316.44;4996224;28;20580;-89
2021/05/17 05:27:15;;;;;;;29.10;27.08;;;;;;;14.82;100.00;100317.50;5002562;28;20053;-92
2021/05/17 05:29:58;;;;;;;30.42;28.05;;;;;;;14.74;100.00;100320.59;5003257;28;20054;-91
2021/05/17 05:32:35;;;;;;;;;;;;;;;15.08;100.00;100324.88;5006141;28;20124;-92
2021/05/17 05:35:04;;;;;;;28.33;26.08;;;;;;;15.47;100.00;100324.06;5001726;28;20020;-87
2021/05/17 05:37:30;;;;;;;26.83;25.02;;;;;;;16.16;100.00;100323.56;4999631;28;20054;-89
2021/05/17 05:39:58;;;;;;;30.80;28.90;;;;;;;16.71;100.00;100314.44;4996377;28;20451;-89
2021/05/17 05:42:26;;;;;;;29.35;27.50;;;;;;;16.30;100.00;100315.94;5002955;28;20050;-88
2021/05/17 05:44:52;;;;;;;29.95;28.05;;;;;;;16.52;100.00;100323.91;5001968;28;20074;-90
2021/05/17 05:47:19;;;;;;;28.23;26.52;;;;;;;17.25;100.00;100321.53;5000292;28;20050;-89
2021/05/17 05:49:47;;;;;;;30.77;28.85;;;;;;;17.01;100.00;100311.19;4997673;28;20105;-90
2021/05/17 05:52:16;;;;;;;31.65;29.45;;;;;;;16.51;100.00;100320.41;5000530;28;20423;-89
2021/05/17 05:54:44;;;;;;;29.02;27.08;;;;;;;16.18;100.00;100321.44;4993869;28;20081;-89
2021/05/17 05:57:13;;;;;;;31.85;29.75;;;;;;;16.11;100.00;100318.97;4997170;28;20068;-89
2021/05/17 05:59:43;;;;;;;32.08;29.98;;;;;;;15.92;100.00;100326.53;5000251;28;20081;-89
2021/05/17 06:02:25;;;;;;;31.40;29.10;;;;;;;17.13;100.00;100329.78;5000925;28;20073;-89
2021/05/17 06:04:53;;;;;;;31.45;29.25;;;;;;;16.34;100.00;100309.81;5000921;28;20076;-89
2021/05/17 06:07:19;;;;;;;28.85;26.75;;;;;;;15.91;100.00;100327.56;4993731;28;20109;-88
2021/05/17 06:09:46;;;;;;;28.65;26.65;;;;;;;16.19;100.00;100326.56;4994135;28;20451;-89
2021/05/17 06:12:14;;;;;;;31.58;29.52;;;;;;;16.86;100.00;100316.44;4998597;28;20054;-88
2021/05/17 06:14:44;;;;;;;33.40;31.10;;;;;;;17.22;100.00;100303.28;5004387;28;20434;-88
2021/05/17 06:17:11;;;;;;;32.28;30.10;;;;;;;16.43;100.00;100310.16;5003720;28;20104;-88
2021/05/17 06:19:38;;;;;;;31.42;29.33;;;;;;;15.97;100.00;100312.38;4992930;28;20173;-87
2021/05/17 06:22:08;;;;;;;29.85;27.75;;;;;;;16.20;100.00;100322.00;4999996;28;20107;-87
2021/05/17 06:24:37;;;;;;;31.00;28.90;;;;;;;16.36;100.00;100328.31;4999171;28;20115;-88
2021/05/17 06:27:04;;;;;;;33.75;31.30;;;;;;;15.88;100.00;100330.75;5000396;28;20100;-88
2021/05/17 06:29:35;;;;;;;33.30;30.70;;;;;;;16.18;100.00;100321.44;4993392;28;20053;-89
2021/05/17 06:32:01;;;;;;;31.98;29.77;;;;;;;16.29;100.00;100311.66;4998465;28;20124;-89
2021/05/17 06:34:28;;;;;;;32.60;29.90;;;;;;;16.36;100.00;100310.34;4995288;28;20068;-89
2021/05/17 06:36:55;;;;;;;31.42;29.20;;;;;;;16.35;100.00;100310.63;4999264;28;20054;-89
2021/05/17 06:39:21;;;;;;;33.15;30.80;;;;;;;16.41;100.00;100302.38;5007780;28;20057;-89
2021/05/17 06:41:48;;;;;;;32.50;30.17;;;;;;;16.19;100.00;100312.34;4997019;28;20205;-89
2021/05/17 06:44:16;;;;;;;35.72;33.33;;;;;;;16.19;100.00;100310.47;4998728;28;20057;-88
2021/05/17 06:46:44;;;;;;;34.60;32.25;;;;;;;16.20;100.00;100312.09;4989431;28;20038;-89
2021/05/17 06:49:11;;;;;;;35.30;32.70;;;;;;;16.61;100.00;100300.91;4998502;28;20042;-89
2021/05/17 06:51:40;;;;;;;35.63;33.03;;;;;;;16.69;100.00;100301.25;4997771;28;20061;-88
2021/05/17 06:54:09;;;;;;;34.03;31.65;;;;;;;16.74;100.00;100292.47;4996563;28;20042;-87
2021/05/17 06:56:41;;;;;;;34.10;31.67;;;;;;;16.88;100.00;100292.84;4997902;28;20057;-89
2021/05/17 06:59:12;;;;;;;35.33;33.03;;;;;;;17.16;100.00;100286.34;4999227;28;20050;-87
2021/05/17 07:01:39;;;;;;;32.65;30.48;;;;;;;17.20;100.00;100279.38;4997543;28;20046;-89
2021/05/17 07:04:09;;;;;;;32.25;30.23;;;;;;;16.60;100.00;100270.63;4996866;28;20397;-88
2021/05/17 07:06:38;;;;;;;28.92;27.02;;;;;;;16.91;100.00;100282.44;4995252;28;20405;-88
2021/05/17 07:11:53;;;;;;;29.88;27.70;;;;;;;16.93;100.00;100276.78;4998625;28;20577;-88
2021/05/17 07:14:19;;;;;;;28.58;26.75;;;;;;;17.12;100.00;100286.03;4998145;28;20054;-88
2021/05/17 07:16:46;;;;;;;28.80;27.00;;;;;;;17.49;100.00;100287.00;4994644;28;20104;-88
2021/05/17 07:19:13;;;;;;;28.80;27.00;;;;;;;17.59;100.00;100295.13;5000246;28;20057;-88
2021/05/17 07:24:24;;;;;;;28.95;27.08;;;;;;;17.78;100.00;100301.66;4975671;28;20077;-88
2021/05/17 07:26:51;;;;;;;31.27;29.17;;;;;;;17.79;100.00;100291.72;4994819;28;20134;-88
2021/05/17 07:29:18;;;;;;;28.58;26.70;;;;;;;18.01;100.00;100295.03;5000520;28;20050;-89
2021/05/17 07:31:45;;;;;;;29.60;27.70;;;;;;;17.83;100.00;100290.94;4996660;28;20085;-88
2021/05/17 07:34:15;;;;;;;28.60;26.95;;;;;;;18.02;100.00;100285.06;4996562;28;20050;-89
2021/05/17 07:36:42;;;;;;;29.10;27.20;;;;;;;17.93;100.00;100289.34;4998874;28;20046;-89
2021/05/17 07:39:09;;;;;;;29.77;27.98;;;;;;;18.20;100.00;100287.25;5008260;28;20050;-88
2021/05/17 07:41:35;;;;;;;29.48;27.58;;;;;;;18.29;100.00;100282.97;4999591;28;20053;-89
2021/05/17 07:44:04;;;;;;;29.02;27.38;;;;;;;18.28;100.00;100269.81;5007020;28;20423;-90
2021/05/17 07:46:31;;;;;;;30.67;28.35;;;;;;;18.63;100.00;100270.88;4997070;28;20116;-89
2021/05/17 07:49:09;;;;;;;32.60;30.52;;;;;;;18.25;100.00;100268.47;4998120;28;20054;-89
2021/05/17 07:51:38;;;;;;;32.83;30.90;;;;;;;18.43;100.00;100260.94;4996073;28;20563;-88
2021/05/17 07:54:05;;;;;;;32.47;30.58;;;;;;;18.70;100.00;100257.97;5000530;28;20115;-89
2021/05/17 07:56:31;;;;;;;31.38;29.48;;;;;;;18.62;100.00;100253.94;4996814;28;20050;-89
2021/05/17 07:59:00;;;;;;;30.30;28.60;;;;;;;18.72;100.00;100253.91;5004159;28;20053;-89
2021/05/17 08:01:27;;;;;;;29.83;28.23;;;;;;;18.68;100.00;100252.06;5001512;28;20109;-88
2021/05/17 08:03:54;;;;;;;30.38;28.42;;;;;;;18.84;100.00;100245.59;5004012;28;20107;-89
2021/05/17 08:06:21;;;;;;;29.65;27.83;;;;;;;18.66;100.00;100252.31;4997902;28;20052;-89
2021/05/17 08:08:50;;;;;;;32.88;30.92;;;;;;;19.10;100.00;100251.72;5001506;28;20111;-89
2021/05/17 08:11:16;;;;;;;31.80;30.05;;;;;;;18.54;100.00;100249.09;4999558;28;20046;-87
2021/05/17 08:13:43;;;;;;;31.45;29.00;;;;;;;18.24;100.00;100244.53;5006792;28;20439;-88
2021/05/17 08:16:10;;;;;;;29.20;27.50;;;;;;;18.70;100.00;100255.28;4998427;28;20259;-88
2021/05/17 08:18:37;;;;;;;30.65;28.83;;;;;;;18.58;100.00;100249.34;5002552;28;20046;-89
2021/05/17 08:21:04;;;;;;;27.83;26.33;;;;;;;19.07;100.00;100252.28;5001704;28;20507;-90
2021/05/17 08:23:31;;;;;;;27.30;25.80;;;;;;;18.92;100.00;100258.50;5007775;28;20435;-88
2021/05/17 08:25:58;;;;;;;28.48;26.90;;;;;;;18.96;100.00;100259.56;5001816;28;20042;-89
2021/05/17 08:28:24;;;;;;;27.33;25.65;;;;;;;18.84;100.00;100258.25;5002784;28;20050;-90
2021/05/17 08:30:55;;;;;;;29.92;27.88;;;;;;;18.81;100.00;100256.09;4994638;28;20038;-89
2021/05/17 08:33:22;;;;;;;28.92;27.33;;;;;;;18.85;100.00;100257.97;5001656;28;20050;-88
2021/05/17 08:35:49;;;;;;;29.17;27.58;;;;;;;18.96;100.00;100258.75;5001301;28;20046;-89
2021/05/17 08:38:16;;;;;;;28.05;26.35;;;;;;;18.87;100.00;100263.06;5000897;28;20100;-89
2021/05/17 08:40:44;;;;;;;28.10;26.50;;;;;;;18.71;100.00;100270.34;4995577;28;20295;-89
2021/05/17 08:43:12;;;;;;;28.00;26.50;;;;;;;18.64;100.00;100256.34;5001223;28;20436;-89
2021/05/17 08:45:38;;;;;;;28.65;26.88;;;;;;;18.77;100.00;100266.59;5001034;28;20142;-89
2021/05/17 08:48:07;;;;;;;27.33;25.73;;;;;;;18.87;100.00;100260.38;4998306;28;20057;-89
2021/05/17 08:50:34;;;;;;;30.45;28.75;;;;;;;18.91;100.00;100256.06;4986266;28;20050;-90
2021/05/17 08:53:01;;;;;;;30.13;28.42;;;;;;;19.47;100.00;100257.78;4998152;28;20116;-90
2021/05/17 08:55:27;;;;;;;31.77;30.08;;;;;;;19.34;100.00;100243.84;5001172;28;20046;-88
2021/05/17 08:57:54;;;;;;;32.58;30.40;;;;;;;19.37;100.00;100247.88;4999114;28;20046;-89
2021/05/17 09:00:23;;;;;;;28.45;26.73;;;;;;;19.09;100.00;100252.81;5001810;28;20116;-90
2021/05/17 09:02:51;;;;;;;31.65;29.77;;;;;;;19.37;100.00;100247.88;4992086;28;20046;-89
2021/05/17 09:05:20;;;;;;;33.22;31.23;;;;;;;19.47;100.00;100250.50;5004157;28;20490;-88
2021/05/17 09:07:48;;;;;;;28.08;26.55;;;;;;;19.07;100.00;100232.63;5001050;28;20089;-89
2021/05/17 09:10:17;;;;;;;27.63;26.05;;;;;;;19.07;100.00;100238.81;4997428;28;20045;-89
2021/05/17 09:13:10;;;;;;;29.83;28.05;;;;;;;19.38;100.00;100230.63;5001008;28;20056;-89
2021/05/17 09:15:39;;;;;;;30.02;28.20;;;;;;;20.10;100.00;100222.97;4992146;28;20045;-89
2021/05/17 09:18:08;;;;;;;28.92;27.35;;;;;;;20.54;100.00;100222.06;5001185;28;20048;-89
2021/05/17 09:20:41;;;;;;;31.65;29.75;;;;;;;20.24;100.00;100217.72;5000260;28;20491;-89
2021/05/17 09:23:12;;;;;;;31.88;30.08;;;;;;;20.82;100.00;100215.06;5002731;28;20073;-88
2021/05/17 09:25:40;;;;;;;30.80;29.00;;;;;;;20.71;100.00;100211.66;4998647;28;20050;-89
2021/05/17 09:28:11;;;;;;;31.13;29.33;;;;;;;20.69;100.00;100211.13;5000393;28;20061;-89
2021/05/17 09:30:53;;;;;;;28.27;26.60;;;;;;;20.19;100.00;100218.59;4992883;28;20439;-88
2021/05/17 09:33:22;;;;;;;27.30;25.70;;;;;;;19.84;100.00;100217.72;4995011;28;20467;-90
2021/05/17 09:35:50;;;;;;;28.63;26.85;;;;;;;20.43;100.00;100212.47;5001048;28;20046;-89
2021/05/17 09:38:19;;;;;;;26.95;25.45;;;;;;;20.26;100.00;100215.56;4994536;28;20069;-90
2021/05/17 09:40:46;;;;;;;26.27;24.77;;;;;;;19.78;100.00;100223.44;4996764;28;21842;-89
2021/05/17 09:43:15;;;;;;;27.50;25.90;;;;;;;20.31;100.00;100221.72;5009741;28;20046;-89
2021/05/17 09:45:44;;;;;;;26.65;25.15;;;;;;;19.72;100.00;100225.34;5003293;28;20137;-89
2021/05/17 09:48:14;;;;;;;30.42;28.63;;;;;;;20.16;100.00;100229.94;4997596;28;20062;-89
2021/05/17 09:51:12;;;;;;;29.05;27.50;;;;;;;19.55;100.00;100235.69;4999267;28;20046;-89
2021/05/17 09:53:41;;;;;;;26.80;25.35;;;;;;;20.20;100.00;100228.28;4920826;29;20063;-89
2021/05/17 09:56:08;;;;;;;27.25;25.75;;;;;;;19.77;100.00;100224.53;4984106;28;20412;-89
2021/05/17 09:58:37;;;;;;;26.77;25.33;;;;;;;19.83;100.00;100226.13;4997439;28;20065;-89
2021/05/17 10:01:12;;;;;;;27.45;26.02;;;;;;;19.57;100.00;100231.59;4997471;28;20046;-89
2021/05/17 10:03:44;;;;;;;28.92;27.25;;;;;;;20.23;100.00;100222.31;4991573;28;20050;-88
2021/05/17 10:06:13;;;;;;;27.48;25.88;;;;;;;20.57;100.00;100221.50;4995892;28;20054;-89
2021/05/17 10:08:40;;;;;;;30.00;28.30;;;;;;;20.93;100.00;100227.34;4999383;28;20065;-89
2021/05/17 10:11:07;;;;;;;28.77;26.83;;;;;;;20.39;100.00;100220.28;5001426;28;20053;-89
2021/05/17 10:13:35;;;;;;;29.88;28.17;;;;;;;20.77;100.00;100220.50;4995937;28;20054;-90
2021/05/17 10:16:06;;;;;;;32.17;30.58;;;;;;;20.50;100.00;100219.13;5001111;28;20480;-89
2021/05/17 10:18:34;;;;;;;35.10;33.40;;;;;;;20.20;100.00;100211.28;5001729;28;20511;-89
2021/05/17 10:21:02;;;;;;;34.65;32.72;;;;;;;20.19;100.00;100212.38;4995116;28;20836;-89
2021/05/17 10:23:30;;;;;;;30.25;28.55;;;;;;;20.52;100.00;100208.09;4995495;28;20058;-89
2021/05/17 10:26:08;;;;;;;30.67;28.77;;;;;;;20.49;100.00;100214.03;4996384;28;20046;-90
2021/05/17 10:28:36;;;;;;;31.33;29.52;;;;;;;21.22;100.00;100210.28;4993779;28;20049;-89
2021/05/17 10:31:10;;;;;;;28.92;27.23;;;;;;;21.04;100.00;100220.75;4992558;28;20053;-88
2021/05/17 10:33:37;;;;;;;29.30;27.70;;;;;;;21.27;100.00;100208.34;4999301;28;20057;-90
2021/05/17 10:36:06;;;;;;;29.02;27.20;;;;;;;21.56;100.00;100212.03;5001240;28;20454;-90
2021/05/17 10:38:43;;;;;;;28.42;26.90;;;;;;;21.49;100.00;100207.81;5006658;28;20582;-90
2021/05/17 10:41:34;;;;;;;30.50;28.67;;;;;;;21.01;100.00;100210.53;4994282;28;20443;-91
2021/05/17 10:44:07;;;;;;;29.95;28.25;;;;;;;20.97;100.00;100206.00;4990806;28;20046;-91
2021/05/17 10:46:40;;;;;;;29.02;27.33;;;;;;;20.90;100.00;100202.81;4997244;28;20120;-90
2021/05/17 10:49:26;;;;;;;31.25;29.45;;;;;;;20.83;100.00;100211.28;4986538;28;20583;-88
2021/05/17 10:51:54;;;;;;;30.55;28.95;;;;;;;20.21;100.00;100205.63;4998278;28;20054;-89
2021/05/17 10:54:24;;;;;;;31.08;29.23;;;;;;;20.14;100.00;100197.84;4999680;28;20046;-90
2021/05/17 10:56:54;;;;;;;31.63;29.83;;;;;;;20.95;100.00;100194.69;5003661;28;20069;-88
2021/05/17 11:02:14;;;;;;;34.03;32.13;;;;;;;20.45;100.00;100197.56;5003455;28;20505;-89
2021/05/17 11:04:41;;;;;;;33.03;31.02;;;;;;;20.63;100.00;100200.69;4993714;28;20400;-88
2021/05/17 11:07:19;;;;;;;30.83;29.20;;;;;;;20.81;100.00;100200.75;5000626;28;20057;-89
2021/05/17 11:09:52;;;;;;;27.85;26.35;;;;;;;20.00;100.00;100190.69;4999734;28;20050;-88
2021/05/17 11:12:34;;;;;;;27.55;26.05;;;;;;;20.07;100.00;100189.28;5003023;28;20129;-89
2021/05/17 11:15:07;;;;;;;28.05;26.42;;;;;;;20.06;100.00;100186.84;4970321;28;20050;-89
2021/05/17 11:17:48;;;;;;;;;;;;;;;20.04;100.00;100197.94;5001110;28;20043;-89
2021/05/17 11:20:48;;;;;;;29.27;27.77;;;;;;;19.72;100.00;100187.63;4960944;28;20325;-89
2021/05/17 11:23:18;;;;;;;28.05;26.10;;;;;;;20.21;100.00;100188.63;4926875;29;20056;-90
2021/05/17 11:25:50;;;;;;;28.90;27.30;;;;;;;20.04;100.00;100179.06;4984296;28;20147;-89